sensor_id;sensor_type;location;lat;lon;timestamp;temperature;humidity
66035;HTU21D;52805;51.074;5.842;2022-08-23T00:02:04;21.85;62.18
66035;HTU21D;52805;51.074;5.842;2022-08-23T00:04:35;21.85;62.17
66035;HTU21D;52805;51.074;5.842;2022-08-23T00:07:03;21.81;62.21
66035;HTU21D;52805;51.074;5.842;2022-08-23T00:09:29;21.77;62.28
66035;HTU21D;52805;51.074;5.842;2022-08-23T00:12:13;21.76;62.28
66035;HTU21D;52805;51.074;5.842;2022-08-23T00:14:43;21.74;62.31
66035;HTU21D;52805;51.074;5.842;2022-08-23T00:17:10;21.70;62.40
66035;HTU21D;52805;51.074;5.842;2022-08-23T00:19:37;21.64;62.67
66035;HTU21D;52805;51.074;5.842;2022-08-23T00:22:05;21.58;62.92
66035;HTU21D;52805;51.074;5.842;2022-08-23T00:24:31;21.52;63.06
66035;HTU21D;52805;51.074;5.842;2022-08-23T00:27:10;21.50;63.19
66035;HTU21D;52805;51.074;5.842;2022-08-23T00:29:46;21.49;63.34
66035;HTU21D;52805;51.074;5.842;2022-08-23T00:32:17;21.46;63.44
66035;HTU21D;52805;51.074;5.842;2022-08-23T00:34:43;21.44;63.50
66035;HTU21D;52805;51.074;5.842;2022-08-23T00:37:10;21.42;63.60
66035;HTU21D;52805;51.074;5.842;2022-08-23T00:39:37;21.33;63.89
66035;HTU21D;52805;51.074;5.842;2022-08-23T00:42:14;21.28;64.03
66035;HTU21D;52805;51.074;5.842;2022-08-23T00:45:04;21.22;64.21
66035;HTU21D;52805;51.074;5.842;2022-08-23T00:47:49;21.17;64.40
66035;HTU21D;52805;51.074;5.842;2022-08-23T00:55:24;21.02;64.72
66035;HTU21D;52805;51.074;5.842;2022-08-23T00:57:50;20.98;64.91
66035;HTU21D;52805;51.074;5.842;2022-08-23T01:00:16;20.91;65.07
66035;HTU21D;52805;51.074;5.842;2022-08-23T01:02:45;20.88;65.08
66035;HTU21D;52805;51.074;5.842;2022-08-23T01:05:13;20.84;65.12
66035;HTU21D;52805;51.074;5.842;2022-08-23T01:07:49;20.78;65.28
66035;HTU21D;52805;51.074;5.842;2022-08-23T01:10:24;20.75;65.33
66035;HTU21D;52805;51.074;5.842;2022-08-23T01:13:13;20.73;65.44
66035;HTU21D;52805;51.074;5.842;2022-08-23T01:15:47;20.74;65.46
66035;HTU21D;52805;51.074;5.842;2022-08-23T01:18:18;20.74;65.42
66035;HTU21D;52805;51.074;5.842;2022-08-23T01:21:37;20.77;65.36
66035;HTU21D;52805;51.074;5.842;2022-08-23T01:23:49;20.78;65.34
66035;HTU21D;52805;51.074;5.842;2022-08-23T01:26:20;20.77;65.39
66035;HTU21D;52805;51.074;5.842;2022-08-23T01:28:48;20.76;65.43
66035;HTU21D;52805;51.074;5.842;2022-08-23T01:31:15;20.72;65.58
66035;HTU21D;52805;51.074;5.842;2022-08-23T01:33:45;20.72;65.57
66035;HTU21D;52805;51.074;5.842;2022-08-23T01:36:15;20.66;65.68
66035;HTU21D;52805;51.074;5.842;2022-08-23T01:38:42;20.61;65.82
66035;HTU21D;52805;51.074;5.842;2022-08-23T01:41:08;20.57;65.92
66035;HTU21D;52805;51.074;5.842;2022-08-23T01:43:34;20.50;66.30
66035;HTU21D;52805;51.074;5.842;2022-08-23T01:46:09;20.45;66.56
66035;HTU21D;52805;51.074;5.842;2022-08-23T01:48:36;20.41;66.72
66035;HTU21D;52805;51.074;5.842;2022-08-23T01:51:03;20.43;66.70
66035;HTU21D;52805;51.074;5.842;2022-08-23T01:53:29;20.46;66.56
66035;HTU21D;52805;51.074;5.842;2022-08-23T01:55:55;20.44;66.55
66035;HTU21D;52805;51.074;5.842;2022-08-23T01:58:23;20.42;66.57
66035;HTU21D;52805;51.074;5.842;2022-08-23T02:00:49;20.40;66.60
66035;HTU21D;52805;51.074;5.842;2022-08-23T02:03:15;20.39;66.65
66035;HTU21D;52805;51.074;5.842;2022-08-23T02:05:42;20.39;66.65
66035;HTU21D;52805;51.074;5.842;2022-08-23T02:08:10;20.35;66.75
66035;HTU21D;52805;51.074;5.842;2022-08-23T02:10:56;20.33;66.82
66035;HTU21D;52805;51.074;5.842;2022-08-23T02:13:23;20.32;66.87
66035;HTU21D;52805;51.074;5.842;2022-08-23T02:15:51;20.32;66.88
66035;HTU21D;52805;51.074;5.842;2022-08-23T02:18:20;20.32;66.88
66035;HTU21D;52805;51.074;5.842;2022-08-23T02:20:49;20.29;66.97
66035;HTU21D;52805;51.074;5.842;2022-08-23T02:23:16;20.22;67.17
66035;HTU21D;52805;51.074;5.842;2022-08-23T02:25:41;20.16;67.38
66035;HTU21D;52805;51.074;5.842;2022-08-23T02:28:09;20.12;67.50
66035;HTU21D;52805;51.074;5.842;2022-08-23T02:30:35;20.04;67.73
66035;HTU21D;52805;51.074;5.842;2022-08-23T02:33:02;20.01;67.88
66035;HTU21D;52805;51.074;5.842;2022-08-23T02:35:28;19.96;67.97
66035;HTU21D;52805;51.074;5.842;2022-08-23T02:37:54;19.94;68.13
66035;HTU21D;52805;51.074;5.842;2022-08-23T02:40:20;19.92;68.19
66035;HTU21D;52805;51.074;5.842;2022-08-23T02:42:46;19.94;68.23
66035;HTU21D;52805;51.074;5.842;2022-08-23T02:45:12;19.96;68.21
66035;HTU21D;52805;51.074;5.842;2022-08-23T02:47:44;19.99;68.18
66035;HTU21D;52805;51.074;5.842;2022-08-23T02:50:18;20.00;68.08
66035;HTU21D;52805;51.074;5.842;2022-08-23T02:52:45;20.02;68.03
66035;HTU21D;52805;51.074;5.842;2022-08-23T02:55:11;20.00;68.07
66035;HTU21D;52805;51.074;5.842;2022-08-23T02:57:37;20.00;68.10
66035;HTU21D;52805;51.074;5.842;2022-08-23T03:00:07;19.96;68.21
66035;HTU21D;52805;51.074;5.842;2022-08-23T03:02:36;19.97;68.26
66035;HTU21D;52805;51.074;5.842;2022-08-23T03:05:06;19.95;68.28
66035;HTU21D;52805;51.074;5.842;2022-08-23T03:07:33;19.97;68.29
66035;HTU21D;52805;51.074;5.842;2022-08-23T03:09:59;19.97;68.32
66035;HTU21D;52805;51.074;5.842;2022-08-23T03:12:25;20.00;68.36
66035;HTU21D;52805;51.074;5.842;2022-08-23T03:14:54;20.02;68.42
66035;HTU21D;52805;51.074;5.842;2022-08-23T03:17:20;20.01;68.56
66035;HTU21D;52805;51.074;5.842;2022-08-23T03:19:47;20.02;68.72
66035;HTU21D;52805;51.074;5.842;2022-08-23T03:22:13;20.03;68.69
66035;HTU21D;52805;51.074;5.842;2022-08-23T03:24:39;20.04;68.75
66035;HTU21D;52805;51.074;5.842;2022-08-23T03:27:05;20.02;68.81
66035;HTU21D;52805;51.074;5.842;2022-08-23T03:29:32;20.03;68.91
66035;HTU21D;52805;51.074;5.842;2022-08-23T03:32:03;20.02;68.97
66035;HTU21D;52805;51.074;5.842;2022-08-23T03:34:34;20.06;68.92
66035;HTU21D;52805;51.074;5.842;2022-08-23T03:37:00;20.09;68.91
66035;HTU21D;52805;51.074;5.842;2022-08-23T03:39:26;20.09;68.99
66035;HTU21D;52805;51.074;5.842;2022-08-23T03:41:52;20.11;69.02
66035;HTU21D;52805;51.074;5.842;2022-08-23T03:44:18;20.13;69.10
66035;HTU21D;52805;51.074;5.842;2022-08-23T03:46:44;20.15;69.15
66035;HTU21D;52805;51.074;5.842;2022-08-23T03:49:10;20.17;69.20
66035;HTU21D;52805;51.074;5.842;2022-08-23T03:51:48;20.19;69.11
66035;HTU21D;52805;51.074;5.842;2022-08-23T03:54:15;20.20;69.04
66035;HTU21D;52805;51.074;5.842;2022-08-23T03:57:05;20.22;69.04
66035;HTU21D;52805;51.074;5.842;2022-08-23T03:59:35;20.25;68.99
66035;HTU21D;52805;51.074;5.842;2022-08-23T04:02:05;20.26;68.97
66035;HTU21D;52805;51.074;5.842;2022-08-23T04:04:31;20.24;68.91
66035;HTU21D;52805;51.074;5.842;2022-08-23T04:07:20;20.27;68.86
66035;HTU21D;52805;51.074;5.842;2022-08-23T04:09:49;20.27;68.88
66035;HTU21D;52805;51.074;5.842;2022-08-23T04:12:15;20.27;68.87
66035;HTU21D;52805;51.074;5.842;2022-08-23T04:14:41;20.31;68.82
66035;HTU21D;52805;51.074;5.842;2022-08-23T04:17:07;20.33;68.82
66035;HTU21D;52805;51.074;5.842;2022-08-23T04:19:33;20.34;68.91
66035;HTU21D;52805;51.074;5.842;2022-08-23T04:22:03;20.36;68.85
66035;HTU21D;52805;51.074;5.842;2022-08-23T04:24:35;20.40;68.94
66035;HTU21D;52805;51.074;5.842;2022-08-23T04:27:01;20.41;68.97
66035;HTU21D;52805;51.074;5.842;2022-08-23T04:29:27;20.42;69.10
66035;HTU21D;52805;51.074;5.842;2022-08-23T04:31:53;20.43;68.92
66035;HTU21D;52805;51.074;5.842;2022-08-23T04:34:19;20.44;68.89
66035;HTU21D;52805;51.074;5.842;2022-08-23T04:36:46;20.46;68.85
66035;HTU21D;52805;51.074;5.842;2022-08-23T04:39:13;20.49;68.78
66035;HTU21D;52805;51.074;5.842;2022-08-23T04:41:39;20.51;68.62
66035;HTU21D;52805;51.074;5.842;2022-08-23T04:44:24;20.51;68.56
66035;HTU21D;52805;51.074;5.842;2022-08-23T04:46:51;20.53;68.51
66035;HTU21D;52805;51.074;5.842;2022-08-23T04:49:17;20.53;68.54
66035;HTU21D;52805;51.074;5.842;2022-08-23T04:51:43;20.53;68.54
66035;HTU21D;52805;51.074;5.842;2022-08-23T04:54:10;20.57;68.52
66035;HTU21D;52805;51.074;5.842;2022-08-23T04:56:42;20.58;68.52
66035;HTU21D;52805;51.074;5.842;2022-08-23T04:59:09;20.61;68.53
66035;HTU21D;52805;51.074;5.842;2022-08-23T05:01:36;20.64;68.47
66035;HTU21D;52805;51.074;5.842;2022-08-23T05:04:02;20.70;68.42
66035;HTU21D;52805;51.074;5.842;2022-08-23T05:06:30;20.70;68.38
66035;HTU21D;52805;51.074;5.842;2022-08-23T05:08:56;20.72;68.42
66035;HTU21D;52805;51.074;5.842;2022-08-23T05:11:22;20.77;68.40
66035;HTU21D;52805;51.074;5.842;2022-08-23T05:13:49;20.80;68.42
66035;HTU21D;52805;51.074;5.842;2022-08-23T05:16:16;20.84;68.31
66035;HTU21D;52805;51.074;5.842;2022-08-23T05:18:54;20.88;68.19
66035;HTU21D;52805;51.074;5.842;2022-08-23T05:21:23;20.91;68.09
66035;HTU21D;52805;51.074;5.842;2022-08-23T05:23:50;20.91;68.07
66035;HTU21D;52805;51.074;5.842;2022-08-23T05:26:20;20.92;67.93
66035;HTU21D;52805;51.074;5.842;2022-08-23T05:28:48;20.88;67.91
66035;HTU21D;52805;51.074;5.842;2022-08-23T05:31:19;20.87;67.94
66035;HTU21D;52805;51.074;5.842;2022-08-23T05:33:50;20.90;67.82
66035;HTU21D;52805;51.074;5.842;2022-08-23T05:36:23;20.89;67.86
66035;HTU21D;52805;51.074;5.842;2022-08-23T05:38:50;20.89;67.89
66035;HTU21D;52805;51.074;5.842;2022-08-23T05:41:18;20.90;67.87
66035;HTU21D;52805;51.074;5.842;2022-08-23T05:43:46;20.91;67.91
66035;HTU21D;52805;51.074;5.842;2022-08-23T05:46:16;20.94;67.91
66035;HTU21D;52805;51.074;5.842;2022-08-23T05:48:49;20.98;67.84
66035;HTU21D;52805;51.074;5.842;2022-08-23T05:51:22;20.99;67.75
66035;HTU21D;52805;51.074;5.842;2022-08-23T05:53:50;21.01;67.73
66035;HTU21D;52805;51.074;5.842;2022-08-23T05:56:25;21.07;67.55
66035;HTU21D;52805;51.074;5.842;2022-08-23T05:58:56;21.09;67.42
66035;HTU21D;52805;51.074;5.842;2022-08-23T06:01:23;21.11;67.23
66035;HTU21D;52805;51.074;5.842;2022-08-23T06:03:52;21.11;67.20
66035;HTU21D;52805;51.074;5.842;2022-08-23T06:06:19;21.14;67.14
66035;HTU21D;52805;51.074;5.842;2022-08-23T06:08:47;21.14;67.21
66035;HTU21D;52805;51.074;5.842;2022-08-23T06:11:19;21.17;67.20
66035;HTU21D;52805;51.074;5.842;2022-08-23T06:13:49;21.22;67.09
66035;HTU21D;52805;51.074;5.842;2022-08-23T06:16:17;21.20;67.10
66035;HTU21D;52805;51.074;5.842;2022-08-23T06:18:44;21.27;66.94
66035;HTU21D;52805;51.074;5.842;2022-08-23T06:21:32;21.27;66.81
66035;HTU21D;52805;51.074;5.842;2022-08-23T06:23:58;21.34;66.72
66035;HTU21D;52805;51.074;5.842;2022-08-23T06:26:27;21.36;66.63
66035;HTU21D;52805;51.074;5.842;2022-08-23T06:28:57;21.37;66.64
66035;HTU21D;52805;51.074;5.842;2022-08-23T06:31:25;21.38;66.51
66035;HTU21D;52805;51.074;5.842;2022-08-23T06:37:12;21.35;66.74
66035;HTU21D;52805;51.074;5.842;2022-08-23T06:39:57;21.36;66.77
66035;HTU21D;52805;51.074;5.842;2022-08-23T06:42:43;21.39;66.81
66035;HTU21D;52805;51.074;5.842;2022-08-23T06:45:09;21.45;66.78
66035;HTU21D;52805;51.074;5.842;2022-08-23T06:47:39;21.54;66.48
66035;HTU21D;52805;51.074;5.842;2022-08-23T06:50:05;21.60;66.40
66035;HTU21D;52805;51.074;5.842;2022-08-23T06:52:51;21.67;66.23
66035;HTU21D;52805;51.074;5.842;2022-08-23T06:55:43;21.73;66.15
66035;HTU21D;52805;51.074;5.842;2022-08-23T06:58:19;21.80;66.01
66035;HTU21D;52805;51.074;5.842;2022-08-23T07:01:29;21.85;65.85
66035;HTU21D;52805;51.074;5.842;2022-08-23T07:04:08;21.91;65.76
66035;HTU21D;52805;51.074;5.842;2022-08-23T07:06:55;21.97;65.66
66035;HTU21D;52805;51.074;5.842;2022-08-23T07:09:21;21.99;65.63
66035;HTU21D;52805;51.074;5.842;2022-08-23T07:11:47;22.05;65.53
66035;HTU21D;52805;51.074;5.842;2022-08-23T07:14:15;22.08;65.58
66035;HTU21D;52805;51.074;5.842;2022-08-23T07:16:45;22.17;65.43
66035;HTU21D;52805;51.074;5.842;2022-08-23T07:19:13;22.24;65.32
66035;HTU21D;52805;51.074;5.842;2022-08-23T07:21:39;22.34;65.23
66035;HTU21D;52805;51.074;5.842;2022-08-23T07:24:05;22.42;65.04
66035;HTU21D;52805;51.074;5.842;2022-08-23T07:26:32;22.50;64.84
66035;HTU21D;52805;51.074;5.842;2022-08-23T07:28:58;22.60;64.78
66035;HTU21D;52805;51.074;5.842;2022-08-23T07:31:29;22.71;64.49
66035;HTU21D;52805;51.074;5.842;2022-08-23T07:33:59;22.80;63.93
66035;HTU21D;52805;51.074;5.842;2022-08-23T07:36:27;22.86;63.73
66035;HTU21D;52805;51.074;5.842;2022-08-23T07:38:55;22.92;63.56
66035;HTU21D;52805;51.074;5.842;2022-08-23T07:41:27;22.97;63.31
66035;HTU21D;52805;51.074;5.842;2022-08-23T07:43:59;23.05;63.02
66035;HTU21D;52805;51.074;5.842;2022-08-23T07:46:29;23.13;62.53
66035;HTU21D;52805;51.074;5.842;2022-08-23T07:48:57;23.14;62.45
66035;HTU21D;52805;51.074;5.842;2022-08-23T07:51:34;23.21;62.24
66035;HTU21D;52805;51.074;5.842;2022-08-23T07:54:03;23.27;62.19
66035;HTU21D;52805;51.074;5.842;2022-08-23T07:56:29;23.38;61.80
66035;HTU21D;52805;51.074;5.842;2022-08-23T07:59:04;23.46;61.60
66035;HTU21D;52805;51.074;5.842;2022-08-23T08:01:42;23.52;61.32
66035;HTU21D;52805;51.074;5.842;2022-08-23T08:04:08;23.59;61.05
66035;HTU21D;52805;51.074;5.842;2022-08-23T08:06:48;23.66;61.05
66035;HTU21D;52805;51.074;5.842;2022-08-23T08:09:17;23.70;60.89
66035;HTU21D;52805;51.074;5.842;2022-08-23T08:11:46;23.79;60.67
66035;HTU21D;52805;51.074;5.842;2022-08-23T08:14:15;23.84;60.60
66035;HTU21D;52805;51.074;5.842;2022-08-23T08:16:50;23.92;60.39
66035;HTU21D;52805;51.074;5.842;2022-08-23T08:19:36;23.98;60.35
66035;HTU21D;52805;51.074;5.842;2022-08-23T08:22:20;24.06;60.15
66035;HTU21D;52805;51.074;5.842;2022-08-23T08:25:04;24.11;60.18
66035;HTU21D;52805;51.074;5.842;2022-08-23T08:27:30;24.18;60.24
66035;HTU21D;52805;51.074;5.842;2022-08-23T08:29:57;24.27;60.18
66035;HTU21D;52805;51.074;5.842;2022-08-23T08:32:23;24.35;60.13
66035;HTU21D;52805;51.074;5.842;2022-08-23T08:34:49;24.45;59.95
66035;HTU21D;52805;51.074;5.842;2022-08-23T08:37:15;24.55;59.65
66035;HTU21D;52805;51.074;5.842;2022-08-23T08:39:41;24.61;59.58
66035;HTU21D;52805;51.074;5.842;2022-08-23T08:45:04;24.77;59.15
66035;HTU21D;52805;51.074;5.842;2022-08-23T08:47:44;24.84;58.97
66035;HTU21D;52805;51.074;5.842;2022-08-23T08:50:35;24.94;58.63
66035;HTU21D;52805;51.074;5.842;2022-08-23T08:53:07;25.00;58.29
66035;HTU21D;52805;51.074;5.842;2022-08-23T08:56:08;25.12;57.71
66035;HTU21D;52805;51.074;5.842;2022-08-23T08:58:47;25.18;57.70
66035;HTU21D;52805;51.074;5.842;2022-08-23T09:01:19;25.25;57.63
66035;HTU21D;52805;51.074;5.842;2022-08-23T09:03:46;25.34;57.46
66035;HTU21D;52805;51.074;5.842;2022-08-23T09:09:22;25.53;56.23
66035;HTU21D;52805;51.074;5.842;2022-08-23T09:17:26;25.77;55.14
66035;HTU21D;52805;51.074;5.842;2022-08-23T09:20:03;25.89;54.54
66035;HTU21D;52805;51.074;5.842;2022-08-23T09:22:43;25.95;54.20
66035;HTU21D;52805;51.074;5.842;2022-08-23T09:25:20;26.03;53.58
66035;HTU21D;52805;51.074;5.842;2022-08-23T09:28:03;26.10;53.54
66035;HTU21D;52805;51.074;5.842;2022-08-23T09:30:49;26.18;53.36
66035;HTU21D;52805;51.074;5.842;2022-08-23T09:33:22;26.25;52.96
66035;HTU21D;52805;51.074;5.842;2022-08-23T09:36:03;26.31;52.71
66035;HTU21D;52805;51.074;5.842;2022-08-23T09:38:29;26.40;52.10
66035;HTU21D;52805;51.074;5.842;2022-08-23T09:40:59;26.48;51.97
66035;HTU21D;52805;51.074;5.842;2022-08-23T09:43:28;26.53;51.78
66035;HTU21D;52805;51.074;5.842;2022-08-23T09:45:59;26.62;51.49
66035;HTU21D;52805;51.074;5.842;2022-08-23T09:48:40;26.70;51.08
66035;HTU21D;52805;51.074;5.842;2022-08-23T09:51:16;26.77;50.79
66035;HTU21D;52805;51.074;5.842;2022-08-23T09:53:48;26.81;50.61
66035;HTU21D;52805;51.074;5.842;2022-08-23T09:56:23;26.86;50.47
66035;HTU21D;52805;51.074;5.842;2022-08-23T09:58:49;26.94;50.23
66035;HTU21D;52805;51.074;5.842;2022-08-23T10:01:30;27.04;49.93
66035;HTU21D;52805;51.074;5.842;2022-08-23T10:06:32;27.22;49.43
66035;HTU21D;52805;51.074;5.842;2022-08-23T10:09:05;27.26;49.13
66035;HTU21D;52805;51.074;5.842;2022-08-23T10:11:41;27.34;48.92
66035;HTU21D;52805;51.074;5.842;2022-08-23T10:14:14;27.42;48.66
66035;HTU21D;52805;51.074;5.842;2022-08-23T10:30:35;27.93;47.23
66035;HTU21D;52805;51.074;5.842;2022-08-23T10:33:11;28.05;47.00
66035;HTU21D;52805;51.074;5.842;2022-08-23T10:38:51;28.25;45.83
66035;HTU21D;52805;51.074;5.842;2022-08-23T10:41:47;28.32;45.37
66035;HTU21D;52805;51.074;5.842;2022-08-23T10:44:37;28.37;45.23
66035;HTU21D;52805;51.074;5.842;2022-08-23T10:47:27;28.42;45.06
66035;HTU21D;52805;51.074;5.842;2022-08-23T10:49:59;28.39;44.97
66035;HTU21D;52805;51.074;5.842;2022-08-23T10:52:36;28.45;44.72
66035;HTU21D;52805;51.074;5.842;2022-08-23T10:55:14;28.56;44.73
66035;HTU21D;52805;51.074;5.842;2022-08-23T10:57:51;28.76;44.23
66035;HTU21D;52805;51.074;5.842;2022-08-23T11:00:23;28.89;43.88
66035;HTU21D;52805;51.074;5.842;2022-08-23T11:03:11;29.03;43.67
66035;HTU21D;52805;51.074;5.842;2022-08-23T11:05:39;29.19;43.55
66035;HTU21D;52805;51.074;5.842;2022-08-23T11:08:34;29.30;43.40
66035;HTU21D;52805;51.074;5.842;2022-08-23T11:14:44;29.58;42.72
66035;HTU21D;52805;51.074;5.842;2022-08-23T11:20:11;29.81;41.45
66035;HTU21D;52805;51.074;5.842;2022-08-23T11:30:48;29.61;42.10
66035;HTU21D;52805;51.074;5.842;2022-08-23T11:38:17;29.76;41.71
66035;HTU21D;52805;51.074;5.842;2022-08-23T11:43:41;29.83;42.34
66035;HTU21D;52805;51.074;5.842;2022-08-23T11:48:40;30.21;41.58
66035;HTU21D;52805;51.074;5.842;2022-08-23T11:51:18;30.39;40.67
66035;HTU21D;52805;51.074;5.842;2022-08-23T11:57:24;30.71;39.65
66035;HTU21D;52805;51.074;5.842;2022-08-23T12:02:34;30.84;39.15
66035;HTU21D;52805;51.074;5.842;2022-08-23T12:05:22;30.89;39.05
66035;HTU21D;52805;51.074;5.842;2022-08-23T12:18:52;31.10;38.30
66035;HTU21D;52805;51.074;5.842;2022-08-23T12:24:02;31.29;37.75
66035;HTU21D;52805;51.074;5.842;2022-08-23T12:37:52;30.77;38.04
66035;HTU21D;52805;51.074;5.842;2022-08-23T12:40:37;30.70;38.35
66035;HTU21D;52805;51.074;5.842;2022-08-23T12:43:14;30.72;38.37
66035;HTU21D;52805;51.074;5.842;2022-08-23T12:45:49;30.74;38.25
66035;HTU21D;52805;51.074;5.842;2022-08-23T12:48:18;30.83;38.30
66035;HTU21D;52805;51.074;5.842;2022-08-23T12:50:58;30.99;38.11
66035;HTU21D;52805;51.074;5.842;2022-08-23T12:53:29;31.28;37.22
66035;HTU21D;52805;51.074;5.842;2022-08-23T12:56:16;31.40;36.78
66035;HTU21D;52805;51.074;5.842;2022-08-23T12:58:48;31.41;36.58
66035;HTU21D;52805;51.074;5.842;2022-08-23T13:01:21;31.50;36.59
66035;HTU21D;52805;51.074;5.842;2022-08-23T13:03:52;31.60;36.31
66035;HTU21D;52805;51.074;5.842;2022-08-23T13:06:25;31.74;35.86
66035;HTU21D;52805;51.074;5.842;2022-08-23T13:09:07;31.72;35.42
66035;HTU21D;52805;51.074;5.842;2022-08-23T13:11:36;31.52;35.73
66035;HTU21D;52805;51.074;5.842;2022-08-23T13:14:26;31.35;35.85
66035;HTU21D;52805;51.074;5.842;2022-08-23T13:17:28;31.29;35.95
66035;HTU21D;52805;51.074;5.842;2022-08-23T13:22:33;31.59;35.40
66035;HTU21D;52805;51.074;5.842;2022-08-23T13:25:10;31.73;35.39
66035;HTU21D;52805;51.074;5.842;2022-08-23T13:32:45;31.49;35.12
66035;HTU21D;52805;51.074;5.842;2022-08-23T13:35:34;31.44;35.23
66035;HTU21D;52805;51.074;5.842;2022-08-23T13:41:06;31.31;35.30
66035;HTU21D;52805;51.074;5.842;2022-08-23T13:46:31;31.41;35.42
66035;HTU21D;52805;51.074;5.842;2022-08-23T13:49:09;31.49;35.23
66035;HTU21D;52805;51.074;5.842;2022-08-23T13:51:41;31.56;35.37
66035;HTU21D;52805;51.074;5.842;2022-08-23T13:54:13;31.69;35.11
66035;HTU21D;52805;51.074;5.842;2022-08-23T13:56:55;31.83;34.88
66035;HTU21D;52805;51.074;5.842;2022-08-23T14:02:04;31.87;34.50
66035;HTU21D;52805;51.074;5.842;2022-08-23T14:04:31;31.85;34.75
66035;HTU21D;52805;51.074;5.842;2022-08-23T14:06:57;31.90;34.74
66035;HTU21D;52805;51.074;5.842;2022-08-23T14:09:22;31.93;34.83
66035;HTU21D;52805;51.074;5.842;2022-08-23T14:11:53;31.93;34.83
66035;HTU21D;52805;51.074;5.842;2022-08-23T14:14:20;31.90;35.00
66035;HTU21D;52805;51.074;5.842;2022-08-23T14:16:45;31.85;35.00
66035;HTU21D;52805;51.074;5.842;2022-08-23T14:19:11;31.88;35.02
66035;HTU21D;52805;51.074;5.842;2022-08-23T14:21:37;31.90;35.11
66035;HTU21D;52805;51.074;5.842;2022-08-23T14:24:03;32.03;34.99
66035;HTU21D;52805;51.074;5.842;2022-08-23T14:26:28;32.17;34.81
66035;HTU21D;52805;51.074;5.842;2022-08-23T14:28:54;32.23;34.43
66035;HTU21D;52805;51.074;5.842;2022-08-23T14:31:20;32.20;34.41
66035;HTU21D;52805;51.074;5.842;2022-08-23T14:33:46;32.23;34.40
66035;HTU21D;52805;51.074;5.842;2022-08-23T14:36:13;32.20;34.37
66035;HTU21D;52805;51.074;5.842;2022-08-23T14:38:39;32.19;34.63
66035;HTU21D;52805;51.074;5.842;2022-08-23T14:41:09;32.34;34.64
66035;HTU21D;52805;51.074;5.842;2022-08-23T14:43:35;32.53;34.23
66035;HTU21D;52805;51.074;5.842;2022-08-23T14:46:01;32.63;33.80
66035;HTU21D;52805;51.074;5.842;2022-08-23T14:48:27;32.59;33.90
66035;HTU21D;52805;51.074;5.842;2022-08-23T14:50:54;32.58;33.57
66035;HTU21D;52805;51.074;5.842;2022-08-23T14:53:24;32.48;33.87
66035;HTU21D;52805;51.074;5.842;2022-08-23T14:55:51;32.32;33.95
66035;HTU21D;52805;51.074;5.842;2022-08-23T14:58:19;32.25;34.34
66035;HTU21D;52805;51.074;5.842;2022-08-23T15:00:45;32.26;34.41
66035;HTU21D;52805;51.074;5.842;2022-08-23T15:03:17;32.32;34.45
66035;HTU21D;52805;51.074;5.842;2022-08-23T15:05:43;32.46;34.15
66035;HTU21D;52805;51.074;5.842;2022-08-23T15:08:09;32.57;34.05
66035;HTU21D;52805;51.074;5.842;2022-08-23T15:10:35;32.69;33.77
66035;HTU21D;52805;51.074;5.842;2022-08-23T15:13:02;32.64;33.60
66035;HTU21D;52805;51.074;5.842;2022-08-23T15:15:29;32.43;33.73
66035;HTU21D;52805;51.074;5.842;2022-08-23T15:17:58;32.15;34.27
66035;HTU21D;52805;51.074;5.842;2022-08-23T15:20:29;31.94;34.82
66035;HTU21D;52805;51.074;5.842;2022-08-23T15:22:55;31.78;35.27
66035;HTU21D;52805;51.074;5.842;2022-08-23T15:25:23;31.65;35.61
66035;HTU21D;52805;51.074;5.842;2022-08-23T15:27:50;31.50;35.89
66035;HTU21D;52805;51.074;5.842;2022-08-23T15:30:17;31.44;36.23
66035;HTU21D;52805;51.074;5.842;2022-08-23T15:32:42;31.52;36.25
66035;HTU21D;52805;51.074;5.842;2022-08-23T15:35:08;31.70;36.17
66035;HTU21D;52805;51.074;5.842;2022-08-23T15:37:35;31.88;35.92
66035;HTU21D;52805;51.074;5.842;2022-08-23T15:40:02;32.09;35.60
66035;HTU21D;52805;51.074;5.842;2022-08-23T15:42:28;32.23;35.26
66035;HTU21D;52805;51.074;5.842;2022-08-23T15:44:54;32.32;35.11
66035;HTU21D;52805;51.074;5.842;2022-08-23T15:47:30;32.41;34.99
66035;HTU21D;52805;51.074;5.842;2022-08-23T15:49:57;32.54;34.85
66035;HTU21D;52805;51.074;5.842;2022-08-23T15:52:23;32.64;34.73
66035;HTU21D;52805;51.074;5.842;2022-08-23T15:54:49;32.61;34.82
66035;HTU21D;52805;51.074;5.842;2022-08-23T15:57:19;32.62;35.02
66035;HTU21D;52805;51.074;5.842;2022-08-23T15:59:45;32.57;34.91
66035;HTU21D;52805;51.074;5.842;2022-08-23T16:02:10;32.40;35.21
66035;HTU21D;52805;51.074;5.842;2022-08-23T16:04:37;32.28;35.40
66035;HTU21D;52805;51.074;5.842;2022-08-23T16:07:08;32.22;35.59
66035;HTU21D;52805;51.074;5.842;2022-08-23T16:09:35;32.18;35.54
66035;HTU21D;52805;51.074;5.842;2022-08-23T16:12:04;32.19;35.62
66035;HTU21D;52805;51.074;5.842;2022-08-23T16:14:30;32.26;35.60
66035;HTU21D;52805;51.074;5.842;2022-08-23T16:16:57;32.29;35.46
66035;HTU21D;52805;51.074;5.842;2022-08-23T16:19:24;32.39;35.31
66035;HTU21D;52805;51.074;5.842;2022-08-23T16:21:51;32.45;35.18
66035;HTU21D;52805;51.074;5.842;2022-08-23T16:24:19;32.42;35.14
66035;HTU21D;52805;51.074;5.842;2022-08-23T16:26:46;32.38;35.27
66035;HTU21D;52805;51.074;5.842;2022-08-23T16:29:15;32.33;35.19
66035;HTU21D;52805;51.074;5.842;2022-08-23T16:31:43;32.31;35.28
66035;HTU21D;52805;51.074;5.842;2022-08-23T16:34:16;32.30;35.39
66035;HTU21D;52805;51.074;5.842;2022-08-23T16:36:46;32.31;35.49
66035;HTU21D;52805;51.074;5.842;2022-08-23T16:39:14;32.30;35.38
66035;HTU21D;52805;51.074;5.842;2022-08-23T16:41:40;32.26;35.48
66035;HTU21D;52805;51.074;5.842;2022-08-23T16:44:06;32.13;35.73
66035;HTU21D;52805;51.074;5.842;2022-08-23T16:46:33;32.02;36.18
66035;HTU21D;52805;51.074;5.842;2022-08-23T16:48:58;31.98;36.35
66035;HTU21D;52805;51.074;5.842;2022-08-23T16:51:24;31.93;36.43
66035;HTU21D;52805;51.074;5.842;2022-08-23T16:53:50;31.87;36.51
66035;HTU21D;52805;51.074;5.842;2022-08-23T16:56:16;31.82;36.65
66035;HTU21D;52805;51.074;5.842;2022-08-23T16:58:43;31.75;36.71
66035;HTU21D;52805;51.074;5.842;2022-08-23T17:01:13;31.72;36.95
66035;HTU21D;52805;51.074;5.842;2022-08-23T17:03:40;31.74;36.87
66035;HTU21D;52805;51.074;5.842;2022-08-23T17:06:07;31.70;36.92
66035;HTU21D;52805;51.074;5.842;2022-08-23T17:08:34;31.66;37.08
66035;HTU21D;52805;51.074;5.842;2022-08-23T17:11:01;31.65;37.18
66035;HTU21D;52805;51.074;5.842;2022-08-23T17:13:27;31.63;37.37
66035;HTU21D;52805;51.074;5.842;2022-08-23T17:15:53;31.54;37.70
66035;HTU21D;52805;51.074;5.842;2022-08-23T17:18:18;31.50;38.15
66035;HTU21D;52805;51.074;5.842;2022-08-23T17:20:44;31.46;38.34
66035;HTU21D;52805;51.074;5.842;2022-08-23T17:23:10;31.40;38.51
66035;HTU21D;52805;51.074;5.842;2022-08-23T17:25:37;31.37;38.61
66035;HTU21D;52805;51.074;5.842;2022-08-23T17:28:04;31.36;38.64
66035;HTU21D;52805;51.074;5.842;2022-08-23T17:30:30;31.33;38.66